Time;durP1;ratioP1;P1;durP2;ratioP2;P2;SDS_P1;SDS_P2;PMS_P1;PMS_P2;Temp;Humidity;BMP_temperature;BMP_pressure;BME280_temperature;BME280_humidity;BME280_pressure;Samples;Min_cycle;Max_cycle;Signal;HPM_P1;HPM_P2
2023/01/07 00:00:58;;;;;;;9.30;6.60;;;7.80;99.90;;;;;;4950871;28;20063;-68
2023/01/07 00:03:24;;;;;;;9.00;6.05;;;7.80;99.90;;;;;;4950638;29;20097;-68
2023/01/07 00:05:50;;;;;;;9.10;5.88;;;7.90;99.90;;;;;;4944580;29;20071;-68
2023/01/07 00:08:15;;;;;;;9.90;6.10;;;7.90;99.90;;;;;;4950837;29;20373;-68
2023/01/07 00:10:41;;;;;;;10.88;5.88;;;7.90;99.90;;;;;;4934607;28;20389;-68
2023/01/07 00:13:07;;;;;;;7.70;5.88;;;7.90;99.90;;;;;;4951506;28;20047;-67
2023/01/07 00:15:33;;;;;;;8.10;5.68;;;7.90;99.90;;;;;;4966721;28;20043;-68
2023/01/07 00:17:58;;;;;;;7.97;5.47;;;8.00;99.90;;;;;;4950386;29;20390;-68
2023/01/07 00:20:24;;;;;;;6.13;4.97;;;8.00;99.90;;;;;;4950279;29;20381;-68
2023/01/07 00:22:50;;;;;;;8.20;5.43;;;7.90;99.90;;;;;;4966667;28;20050;-68
2023/01/07 00:25:16;;;;;;;10.65;5.95;;;7.90;99.90;;;;;;4950774;28;20038;-68
2023/01/07 00:27:42;;;;;;;7.63;5.10;;;7.90;99.90;;;;;;4950720;28;20461;-69
2023/01/07 00:30:08;;;;;;;7.93;5.55;;;8.00;99.90;;;;;;4949224;29;20055;-68
2023/01/07 00:32:53;;;;;;;7.93;5.03;;;8.00;99.90;;;;;;4935264;29;20435;-69
2023/01/07 00:35:22;;;;;;;6.38;4.72;;;8.00;99.90;;;;;;4950165;29;20122;-68
2023/01/07 00:37:52;;;;;;;6.72;4.82;;;8.10;99.90;;;;;;4946789;29;20055;-69
2023/01/07 00:40:18;;;;;;;6.00;4.45;;;8.10;99.90;;;;;;4934438;29;20057;-69
2023/01/07 00:42:53;;;;;;;6.78;4.90;;;8.20;99.90;;;;;;4950618;28;20047;-69
2023/01/07 00:45:19;;;;;;;9.70;4.97;;;8.20;99.90;;;;;;4967122;28;20109;-68
2023/01/07 00:47:45;;;;;;;6.82;4.85;;;8.20;99.90;;;;;;4952139;28;20078;-68
2023/01/07 00:50:10;;;;;;;10.98;4.57;;;8.20;99.90;;;;;;4934789;29;20079;-69
2023/01/07 00:52:36;;;;;;;5.40;4.55;;;8.20;99.90;;;;;;4934006;29;20109;-68
2023/01/07 00:55:02;;;;;;;6.57;4.75;;;8.30;99.90;;;;;;4948713;28;20044;-68
2023/01/07 00:57:28;;;;;;;5.70;3.92;;;8.30;99.90;;;;;;4950084;28;20555;-68
2023/01/07 00:59:53;;;;;;;6.35;4.07;;;8.30;99.90;;;;;;4948635;29;20326;-66
2023/01/07 01:02:19;;;;;;;6.10;3.58;;;8.40;99.90;;;;;;4949900;29;20162;-68
2023/01/07 01:04:45;;;;;;;4.68;3.35;;;8.50;99.90;;;;;;4946693;28;20138;-68
2023/01/07 01:07:11;;;;;;;5.22;3.47;;;8.40;99.90;;;;;;4949380;28;20083;-68
2023/01/07 01:09:36;;;;;;;4.88;3.60;;;8.50;99.90;;;;;;4949332;28;20078;-67
2023/01/07 01:12:02;;;;;;;4.43;3.22;;;8.50;99.90;;;;;;4951825;28;20072;-67
2023/01/07 01:14:31;;;;;;;4.85;3.38;;;8.50;99.90;;;;;;4950407;29;20053;-68
2023/01/07 01:16:57;;;;;;;5.45;3.25;;;8.60;99.90;;;;;;4950511;28;20054;-67
2023/01/07 01:19:25;;;;;;;7.40;4.00;;;8.70;99.90;;;;;;4949548;29;20050;-68
2023/01/07 01:21:51;;;;;;;;;;;8.60;99.90;;;;;;4982295;28;20366;-67
2023/01/07 01:24:16;;;;;;;3.83;2.58;;;8.70;99.90;;;;;;4949564;28;19929;-68
2023/01/07 01:26:42;;;;;;;5.38;3.20;;;8.70;99.90;;;;;;4949741;29;20457;-68
2023/01/07 01:29:08;;;;;;;3.30;2.60;;;8.80;99.90;;;;;;4933617;28;20085;-68
2023/01/07 01:31:34;;;;;;;4.65;2.47;;;8.80;99.90;;;;;;4948231;28;20050;-68
2023/01/07 01:33:59;;;;;;;4.45;2.50;;;8.80;99.90;;;;;;4950689;28;20050;-68
2023/01/07 01:36:25;;;;;;;3.67;1.92;;;8.90;99.90;;;;;;4949984;28;20047;-67
2023/01/07 01:38:51;;;;;;;4.28;1.98;;;8.90;99.90;;;;;;4949290;28;20054;-67
2023/01/07 01:41:17;;;;;;;2.97;2.05;;;9.00;99.90;;;;;;4917693;29;20047;-67
2023/01/07 01:43:43;;;;;;;2.58;1.83;;;9.00;99.90;;;;;;4965313;28;20497;-66
2023/01/07 01:46:15;;;;;;;2.08;1.50;;;9.10;99.90;;;;;;4946737;28;20513;-67
2023/01/07 01:48:55;;;;;;;2.65;1.80;;;9.10;99.90;;;;;;4965432;28;20537;-66
2023/01/07 01:51:22;;;;;;;2.17;1.65;;;9.10;99.90;;;;;;4951087;28;20054;-66
2023/01/07 01:53:49;;;;;;;3.50;1.83;;;9.10;99.90;;;;;;4949781;28;20157;-65
2023/01/07 01:56:20;;;;;;;3.00;1.58;;;9.20;99.90;;;;;;4933458;28;20043;-68
2023/01/07 01:58:48;;;;;;;5.85;2.33;;;9.20;99.90;;;;;;4950139;28;20551;-67
2023/01/07 02:01:14;;;;;;;3.17;1.85;;;9.10;99.90;;;;;;4927599;29;20059;-66
2023/01/07 02:03:40;;;;;;;3.92;2.25;;;9.20;99.90;;;;;;4918944;29;20047;-65
2023/01/07 02:06:06;;;;;;;2.88;2.05;;;9.10;99.90;;;;;;4952946;29;20062;-65
2023/01/07 02:08:32;;;;;;;4.35;2.15;;;9.20;99.90;;;;;;4953155;29;20524;-65
2023/01/07 02:11:10;;;;;;;4.30;2.60;;;9.20;99.90;;;;;;4936575;29;20047;-66
2023/01/07 02:14:31;;;;;;;3.72;2.20;;;9.10;99.90;;;;;;4920056;29;20074;-67
2023/01/07 02:17:07;;;;;;;5.03;2.83;;;9.20;99.90;;;;;;4926521;29;20198;-66
2023/01/07 02:19:49;;;;;;;3.15;2.20;;;9.10;99.90;;;;;;4950156;29;20117;-66
2023/01/07 02:22:33;;;;;;;5.60;2.70;;;9.20;99.90;;;;;;4952306;29;20513;-65
2023/01/07 02:25:05;;;;;;;3.53;2.35;;;9.20;99.90;;;;;;4953681;28;20915;-69
2023/01/07 02:27:49;;;;;;;4.95;2.63;;;9.10;99.90;;;;;;4952514;29;20047;-67
2023/01/07 02:30:53;;;;;;;4.07;2.53;;;9.10;99.90;;;;;;4981406;28;20469;-66
2023/01/07 02:33:30;;;;;;;5.75;2.78;;;9.10;99.90;;;;;;4927001;29;20074;-65
2023/01/07 02:36:02;;;;;;;4.57;3.00;;;9.10;99.90;;;;;;4953991;28;20069;-66
2023/01/07 02:38:52;;;;;;;5.35;2.60;;;9.20;99.90;;;;;;4952939;28;20050;-68
2023/01/07 02:41:55;;;;;;;3.80;2.90;;;9.10;99.90;;;;;;4938767;29;20051;-66
2023/01/07 02:44:45;;;;;;;5.55;2.95;;;9.10;99.90;;;;;;4982294;28;20127;-66
2023/01/07 02:47:52;;;;;;;5.05;2.92;;;9.20;99.90;;;;;;4953150;29;20497;-67
2023/01/07 02:50:18;;;;;;;5.72;3.30;;;9.10;99.90;;;;;;4938747;29;20066;-66
2023/01/07 02:52:44;;;;;;;7.03;3.90;;;9.10;99.90;;;;;;4918404;29;20047;-66
2023/01/07 02:55:17;;;;;;;6.13;4.03;;;9.10;99.90;;;;;;4951600;28;20051;-67
2023/01/07 02:58:07;;;;;;;6.00;3.72;;;9.10;99.90;;;;;;4950836;28;20103;-67
2023/01/07 03:01:07;;;;;;;6.38;3.35;;;9.10;99.90;;;;;;4963558;28;20105;-68
2023/01/07 03:03:55;;;;;;;5.53;3.08;;;9.10;99.90;;;;;;4947817;29;20097;-66
2023/01/07 03:06:53;;;;;;;10.35;3.78;;;9.10;99.90;;;;;;4952645;29;20080;-67
2023/01/07 03:09:18;;;;;;;;;;;9.10;99.90;;;;;;4963723;28;20051;-67
2023/01/07 03:11:52;;;;;;;4.00;2.63;;;9.10;99.90;;;;;;4952293;28;20287;-67
2023/01/07 03:14:19;;;;;;;4.80;2.60;;;9.10;99.90;;;;;;4951790;28;20059;-68
2023/01/07 03:16:49;;;;;;;3.87;2.57;;;9.10;99.90;;;;;;4933225;28;20043;-67
2023/01/07 03:19:20;;;;;;;4.65;2.58;;;9.10;99.90;;;;;;4935083;29;20563;-67
2023/01/07 03:21:46;;;;;;;3.35;2.33;;;9.10;99.90;;;;;;4936226;29;20057;-67
2023/01/07 03:24:12;;;;;;;3.30;1.98;;;9.10;99.90;;;;;;4952351;28;20086;-67
2023/01/07 03:26:43;;;;;;;2.88;2.00;;;9.20;99.90;;;;;;4949644;28;20079;-66
2023/01/07 03:29:10;;;;;;;3.60;2.25;;;9.10;99.90;;;;;;4952785;28;20058;-68
2023/01/07 03:31:36;;;;;;;4.60;2.00;;;9.20;99.90;;;;;;4933289;29;20441;-66
2023/01/07 03:34:09;;;;;;;3.72;2.20;;;9.20;99.90;;;;;;4935973;28;20051;-65
2023/01/07 03:36:57;;;;;;;2.67;1.98;;;9.20;99.90;;;;;;4933367;29;20047;-66
2023/01/07 03:39:23;;;;;;;2.63;1.90;;;9.30;99.90;;;;;;4936451;28;20054;-64
2023/01/07 03:44:34;;;;;;;4.90;2.45;;;9.30;99.90;;;;;;4951033;29;20130;-65
2023/01/07 03:47:00;;;;;;;3.20;2.17;;;9.30;99.90;;;;;;4935373;29;20139;-66
2023/01/07 03:49:25;;;;;;;4.82;2.30;;;9.30;99.90;;;;;;4935652;29;20525;-65
2023/01/07 03:51:53;;;;;;;3.33;2.20;;;9.30;99.90;;;;;;4951253;28;20043;-65
2023/01/07 03:54:19;;;;;;;3.38;2.20;;;9.30;99.90;;;;;;4932180;29;20366;-64
2023/01/07 03:56:45;;;;;;;2.90;2.03;;;9.30;99.90;;;;;;4946381;29;20434;-65
2023/01/07 03:59:11;;;;;;;3.60;2.38;;;9.30;99.90;;;;;;4934603;28;20389;-66
2023/01/07 04:01:37;;;;;;;2.97;2.00;;;9.30;99.90;;;;;;4950103;28;20464;-64
2023/01/07 04:04:03;;;;;;;3.15;2.30;;;9.30;99.90;;;;;;4950788;29;20058;-65
2023/01/07 04:06:28;;;;;;;2.83;2.10;;;9.40;99.90;;;;;;4947330;28;20051;-66
2023/01/07 04:08:54;;;;;;;2.65;2.15;;;9.40;99.90;;;;;;4964889;28;20062;-65
2023/01/07 04:11:20;;;;;;;5.45;2.10;;;9.40;99.90;;;;;;4951129;29;20070;-66
2023/01/07 04:13:45;;;;;;;3.55;1.92;;;9.40;99.90;;;;;;4967487;28;20078;-66
2023/01/07 04:16:11;;;;;;;3.67;2.20;;;9.50;99.90;;;;;;4950837;29;20043;-65
2023/01/07 04:18:37;;;;;;;2.95;1.90;;;9.40;99.90;;;;;;4949069;28;20055;-67
2023/01/07 04:21:03;;;;;;;3.67;1.88;;;9.40;99.90;;;;;;4947465;29;20074;-66
2023/01/07 04:23:29;;;;;;;3.25;1.90;;;9.40;99.90;;;;;;4966617;28;20047;-65
2023/01/07 04:25:54;;;;;;;2.53;1.80;;;9.30;99.90;;;;;;4933895;28;20051;-66
2023/01/07 04:28:20;;;;;;;4.45;2.00;;;9.30;99.90;;;;;;4933678;28;20091;-66
2023/01/07 04:30:46;;;;;;;3.20;1.80;;;9.30;99.90;;;;;;4934715;28;20089;-65
2023/01/07 04:33:11;;;;;;;2.80;1.80;;;9.30;99.90;;;;;;4948546;29;20485;-66
2023/01/07 04:35:38;;;;;;;2.13;1.63;;;9.30;99.90;;;;;;4930781;29;20126;-66
2023/01/07 04:38:04;;;;;;;2.88;1.80;;;9.20;99.90;;;;;;4934387;29;20047;-66
2023/01/07 04:40:29;;;;;;;2.80;1.90;;;9.20;99.90;;;;;;4951161;28;20051;-65
2023/01/07 04:42:55;;;;;;;3.20;2.10;;;9.20;99.90;;;;;;4950613;28;20129;-66
2023/01/07 04:45:21;;;;;;;2.22;1.60;;;9.20;99.90;;;;;;4951148;28;20382;-65
2023/01/07 04:47:47;;;;;;;2.70;1.88;;;9.20;99.90;;;;;;4934395;29;20142;-67
2023/01/07 04:50:13;;;;;;;2.70;1.90;;;9.20;99.90;;;;;;4949927;29;20065;-66
2023/01/07 04:52:38;;;;;;;2.65;2.00;;;9.20;99.90;;;;;;4950468;29;20047;-67
2023/01/07 04:55:05;;;;;;;3.60;2.08;;;9.10;99.90;;;;;;4934107;29;20047;-67
2023/01/07 04:57:30;;;;;;;5.53;3.20;;;9.10;99.90;;;;;;4950490;28;20113;-65
2023/01/07 04:59:56;;;;;;;5.40;3.47;;;9.00;99.90;;;;;;4934586;29;20051;-66
2023/01/07 05:02:22;;;;;;;4.88;2.95;;;9.00;99.90;;;;;;4949577;29;20070;-68
2023/01/07 05:04:48;;;;;;;4.03;2.50;;;8.90;99.90;;;;;;4950156;29;20323;-66
2023/01/07 05:07:13;;;;;;;3.95;2.70;;;8.90;99.90;;;;;;4933106;29;20054;-66
2023/01/07 05:09:39;;;;;;;4.13;2.65;;;8.80;99.90;;;;;;4946657;29;20051;-66
2023/01/07 05:12:05;;;;;;;3.50;2.38;;;8.80;99.90;;;;;;4934591;29;20058;-67
2023/01/07 05:14:30;;;;;;;3.90;2.47;;;8.80;99.90;;;;;;4933608;29;20046;-65
2023/01/07 05:16:56;;;;;;;3.33;2.13;;;8.70;99.90;;;;;;4948593;28;20051;-65
2023/01/07 05:19:22;;;;;;;4.53;2.35;;;8.70;99.90;;;;;;4949957;28;20070;-66
2023/01/07 05:21:48;;;;;;;3.47;2.40;;;8.70;99.90;;;;;;4950168;29;20047;-66
2023/01/07 05:24:14;;;;;;;3.75;2.60;;;8.70;99.90;;;;;;4965910;28;20355;-67
2023/01/07 05:26:39;;;;;;;3.85;2.40;;;8.70;99.90;;;;;;4933927;29;20062;-67
2023/01/07 05:29:05;;;;;;;3.35;2.30;;;8.70;99.90;;;;;;4930816;29;20048;-66
2023/01/07 05:31:31;;;;;;;4.00;2.60;;;8.70;99.90;;;;;;4948517;29;20474;-67
2023/01/07 05:33:56;;;;;;;5.13;2.90;;;8.70;99.90;;;;;;4949481;29;20047;-65
2023/01/07 05:36:23;;;;;;;4.15;2.97;;;8.70;99.90;;;;;;4950489;28;20047;-67
2023/01/07 05:38:49;;;;;;;3.92;2.97;;;8.60;99.90;;;;;;4932122;29;20051;-66
2023/01/07 05:41:15;;;;;;;4.75;3.10;;;8.60;99.90;;;;;;4952123;29;20130;-66
2023/01/07 05:43:41;;;;;;;4.18;3.10;;;8.60;99.90;;;;;;4952963;29;20477;-66
2023/01/07 05:46:06;;;;;;;4.80;3.40;;;8.70;99.90;;;;;;4950836;29;20517;-65
2023/01/07 05:48:32;;;;;;;6.57;3.08;;;8.70;99.90;;;;;;4935220;29;20508;-67
2023/01/07 05:50:58;;;;;;;6.90;4.10;;;8.70;99.90;;;;;;4938204;28;20478;-65
2023/01/07 05:53:24;;;;;;;5.25;3.63;;;8.70;99.90;;;;;;4937754;28;20106;-65
2023/01/07 05:55:58;;;;;;;5.57;3.65;;;8.70;99.90;;;;;;4951761;28;20366;-67
2023/01/07 05:58:24;;;;;;;5.93;4.00;;;8.80;99.90;;;;;;4954066;29;20058;-65
2023/01/07 06:00:49;;;;;;;6.38;3.95;;;8.80;99.90;;;;;;4954472;29;20484;-66
2023/01/07 06:03:15;;;;;;;5.45;3.58;;;8.80;99.90;;;;;;4969498;28;20055;-66
2023/01/07 06:05:41;;;;;;;5.75;4.13;;;8.90;99.90;;;;;;4968386;28;20050;-65
2023/01/07 06:08:07;;;;;;;5.82;4.28;;;8.90;99.90;;;;;;4955059;28;20059;-65
2023/01/07 06:10:34;;;;;;;6.13;4.03;;;8.90;99.90;;;;;;4939752;29;20061;-64
2023/01/07 06:13:00;;;;;;;6.13;4.55;;;9.00;99.90;;;;;;4940651;29;20047;-64
2023/01/07 06:15:27;;;;;;;6.45;4.45;;;9.00;99.90;;;;;;4935575;29;20047;-66
2023/01/07 06:17:52;;;;;;;5.72;4.07;;;9.00;99.90;;;;;;4938613;28;20058;-65
2023/01/07 06:20:18;;;;;;;6.75;4.78;;;9.00;99.90;;;;;;4971343;28;20047;-65
2023/01/07 06:22:44;;;;;;;5.40;4.10;;;9.10;99.90;;;;;;4954364;28;20054;-65
2023/01/07 06:25:11;;;;;;;7.07;4.40;;;9.00;99.90;;;;;;4967479;28;20520;-65
2023/01/07 06:27:36;;;;;;;6.28;4.40;;;9.00;99.90;;;;;;4954126;29;20086;-65
2023/01/07 06:30:06;;;;;;;5.72;4.65;;;9.10;99.90;;;;;;4953595;29;20532;-66
2023/01/07 06:32:39;;;;;;;6.18;4.45;;;9.00;99.90;;;;;;4937685;29;20469;-65
2023/01/07 06:35:06;;;;;;;7.35;3.60;;;9.00;99.90;;;;;;4969946;28;20039;-66
2023/01/07 06:37:32;;;;;;;6.88;4.68;;;9.00;99.90;;;;;;4935255;29;20094;-64
2023/01/07 06:39:58;;;;;;;6.72;4.82;;;9.10;99.90;;;;;;4953828;28;20099;-65
2023/01/07 06:42:24;;;;;;;6.93;4.75;;;9.10;99.90;;;;;;4921369;29;20096;-65
2023/01/07 06:44:50;;;;;;;6.10;4.65;;;9.00;99.90;;;;;;4952604;29;20043;-65
2023/01/07 06:47:16;;;;;;;5.75;4.28;;;9.10;99.90;;;;;;4953008;29;20090;-66
2023/01/07 06:49:41;;;;;;;7.00;4.70;;;9.00;99.90;;;;;;4950327;28;20074;-66
2023/01/07 06:52:07;;;;;;;7.65;5.20;;;9.00;99.90;;;;;;4937361;29;20750;-65
2023/01/07 06:54:33;;;;;;;7.65;5.22;;;9.00;99.90;;;;;;4953495;28;20134;-66
2023/01/07 06:56:59;;;;;;;5.60;4.00;;;9.00;99.90;;;;;;4952805;29;20050;-65
2023/01/07 06:59:25;;;;;;;6.85;4.93;;;9.00;99.90;;;;;;4947948;29;20113;-66
2023/01/07 07:01:50;;;;;;;6.15;4.38;;;9.00;99.90;;;;;;4952641;29;20086;-64
2023/01/07 07:04:16;;;;;;;5.93;4.47;;;9.10;99.90;;;;;;4952622;28;20082;-66
2023/01/07 07:06:42;;;;;;;6.55;4.55;;;9.10;99.90;;;;;;4951929;28;20051;-65
2023/01/07 07:09:07;;;;;;;7.32;4.65;;;9.10;99.90;;;;;;4953028;28;20512;-66
2023/01/07 07:11:33;;;;;;;5.78;4.32;;;9.00;99.90;;;;;;4969454;28;20043;-65
2023/01/07 07:14:00;;;;;;;5.55;4.13;;;9.00;99.90;;;;;;4952288;28;20043;-65
2023/01/07 07:16:26;;;;;;;5.35;4.00;;;9.00;99.90;;;;;;4952511;28;20055;-66
2023/01/07 07:18:52;;;;;;;6.70;4.38;;;9.00;99.90;;;;;;4950872;28;20109;-65
2023/01/07 07:21:18;;;;;;;6.10;3.97;;;9.00;99.90;;;;;;4936325;29;20055;-65
2023/01/07 07:23:43;;;;;;;6.50;4.15;;;9.10;99.90;;;;;;4951702;29;20078;-65
2023/01/07 07:26:09;;;;;;;5.70;4.60;;;9.10;99.90;;;;;;4936254;29;20055;-65
2023/01/07 07:28:35;;;;;;;7.15;4.93;;;9.10;99.90;;;;;;4935496;28;20515;-63
2023/01/07 07:31:01;;;;;;;6.43;4.95;;;9.10;99.90;;;;;;4936281;28;20240;-65
2023/01/07 07:33:27;;;;;;;6.75;4.75;;;9.10;99.90;;;;;;4951626;29;20563;-64
2023/01/07 07:35:54;;;;;;;7.07;4.50;;;9.10;99.90;;;;;;4952167;28;20098;-65
2023/01/07 07:38:20;;;;;;;5.93;3.88;;;9.10;99.90;;;;;;4934749;29;20042;-64
2023/01/07 07:40:46;;;;;;;7.10;4.25;;;9.10;99.90;;;;;;4952029;28;20043;-65
2023/01/07 07:43:13;;;;;;;5.63;3.90;;;9.10;99.90;;;;;;4947744;29;20073;-65
2023/01/07 07:45:39;;;;;;;6.80;4.25;;;9.10;99.90;;;;;;4951992;28;20054;-63
2023/01/07 07:48:06;;;;;;;5.78;3.97;;;9.10;99.90;;;;;;4916293;29;20062;-63
2023/01/07 07:50:32;;;;;;;6.35;3.95;;;9.10;99.90;;;;;;4967740;28;20051;-63
2023/01/07 07:52:57;;;;;;;6.93;4.00;;;9.10;99.90;;;;;;4951976;28;20066;-63
2023/01/07 07:55:23;;;;;;;5.53;3.65;;;9.10;99.90;;;;;;4936521;29;20355;-63
2023/01/07 07:57:51;;;;;;;4.55;3.35;;;9.20;99.90;;;;;;4952224;28;20051;-62
2023/01/07 08:00:17;;;;;;;4.88;3.20;;;9.20;99.90;;;;;;4937409;28;20388;-63
2023/01/07 08:02:43;;;;;;;14.20;3.70;;;9.20;99.90;;;;;;4950645;29;20062;-63
2023/01/07 08:05:10;;;;;;;5.50;3.30;;;9.20;99.90;;;;;;4951368;29;20441;-64
2023/01/07 08:07:36;;;;;;;4.57;3.20;;;9.30;99.90;;;;;;4951127;28;20460;-62
2023/01/07 08:10:02;;;;;;;4.97;3.42;;;9.30;99.90;;;;;;4952619;28;20070;-63
2023/01/07 08:12:27;;;;;;;5.15;3.05;;;9.20;99.90;;;;;;4951798;29;20042;-62
2023/01/07 08:14:53;;;;;;;4.40;3.22;;;9.20;99.90;;;;;;4951193;28;20043;-62
2023/01/07 08:17:19;;;;;;;5.07;3.53;;;9.30;99.90;;;;;;4952085;28;20457;-64
2023/01/07 08:19:44;;;;;;;5.28;3.55;;;9.20;99.90;;;;;;4951727;28;20190;-63
2023/01/07 08:22:10;;;;;;;5.43;3.00;;;9.20;99.90;;;;;;4951120;29;20117;-63
2023/01/07 08:24:36;;;;;;;3.60;2.80;;;9.20;99.90;;;;;;4934999;29;20137;-63
2023/01/07 08:27:03;;;;;;;4.28;2.90;;;9.20;99.90;;;;;;4949643;28;20050;-63
2023/01/07 08:29:29;;;;;;;4.32;2.80;;;9.30;99.90;;;;;;4951087;28;20053;-64
2023/01/07 08:31:55;;;;;;;5.43;2.70;;;9.30;99.90;;;;;;4967452;28;20129;-63
2023/01/07 08:34:21;;;;;;;4.65;2.75;;;9.30;99.90;;;;;;4967622;28;20551;-63
2023/01/07 08:36:46;;;;;;;4.53;2.40;;;9.30;99.90;;;;;;4935611;28;20052;-63
2023/01/07 08:39:12;;;;;;;3.28;1.95;;;9.40;99.90;;;;;;4933642;29;20063;-63
2023/01/07 08:41:38;;;;;;;3.25;2.30;;;9.50;99.90;;;;;;4951403;29;20162;-63
2023/01/07 08:44:04;;;;;;;3.67;2.05;;;9.40;99.90;;;;;;4952068;28;20456;-64
2023/01/07 08:46:30;;;;;;;3.58;1.90;;;9.50;99.90;;;;;;4967095;28;20047;-64
2023/01/07 08:48:55;;;;;;;3.15;1.92;;;9.50;99.90;;;;;;4951248;28;20058;-63
2023/01/07 08:51:21;;;;;;;3.42;2.45;;;9.50;99.90;;;;;;4934543;28;20159;-63
2023/01/07 08:53:47;;;;;;;3.38;1.90;;;9.50;99.90;;;;;;4950582;29;20054;-63
2023/01/07 08:56:13;;;;;;;4.55;1.80;;;9.50;99.90;;;;;;4966711;28;20066;-63
2023/01/07 08:58:39;;;;;;;2.80;2.00;;;9.50;99.90;;;;;;4927744;29;20043;-64
2023/01/07 09:01:05;;;;;;;3.47;2.10;;;9.50;99.90;;;;;;4933889;29;20469;-63
2023/01/07 09:03:32;;;;;;;2.65;1.83;;;9.50;99.90;;;;;;4950617;29;20047;-64
2023/01/07 09:05:58;;;;;;;2.88;1.90;;;9.50;99.90;;;;;;4931133;29;20047;-63
2023/01/07 09:08:24;;;;;;;2.97;1.80;;;9.40;99.90;;;;;;4960829;28;20110;-64
2023/01/07 09:10:49;;;;;;;3.20;2.05;;;9.50;99.90;;;;;;4934807;29;20774;-63
2023/01/07 09:13:15;;;;;;;2.60;1.83;;;9.50;99.90;;;;;;4949565;28;20039;-64
2023/01/07 09:15:41;;;;;;;4.47;2.03;;;9.50;99.90;;;;;;4949107;28;20039;-64
2023/01/07 09:18:07;;;;;;;3.38;2.17;;;9.60;99.90;;;;;;4966721;28;20439;-63
2023/01/07 09:20:32;;;;;;;3.08;2.15;;;9.60;99.90;;;;;;4949763;28;20401;-64
2023/01/07 09:22:58;;;;;;;2.65;1.92;;;9.70;99.90;;;;;;4952243;28;20051;-64
2023/01/07 09:25:24;;;;;;;3.92;2.25;;;9.80;99.90;;;;;;4951312;29;20109;-66
2023/01/07 09:27:50;;;;;;;3.88;1.95;;;9.80;99.90;;;;;;4966427;28;20069;-64
2023/01/07 09:30:16;;;;;;;5.13;2.10;;;9.80;99.90;;;;;;4968512;28;20480;-63
2023/01/07 09:32:42;;;;;;;2.92;1.80;;;9.90;99.90;;;;;;4965536;28;20047;-64
2023/01/07 09:35:08;;;;;;;3.78;1.98;;;10.00;99.90;;;;;;4934421;29;20047;-66
2023/01/07 09:37:35;;;;;;;3.92;2.67;;;10.00;99.90;;;;;;4963572;28;20047;-63
2023/01/07 09:40:02;;;;;;;2.50;1.58;;;10.00;99.90;;;;;;4933739;29;20055;-64
2023/01/07 09:42:47;;;;;;;5.53;2.03;;;10.00;99.90;;;;;;4934331;28;20422;-64
2023/01/07 09:45:16;;;;;;;2.65;1.90;;;10.10;99.90;;;;;;4945108;29;20662;-64
2023/01/07 09:47:44;;;;;;;2.47;1.80;;;10.10;99.90;;;;;;4965350;28;20047;-63
2023/01/07 09:50:15;;;;;;;2.67;1.85;;;10.20;99.90;;;;;;4934247;29;20595;-63
2023/01/07 09:52:44;;;;;;;2.35;1.60;;;10.30;99.90;;;;;;4961196;28;20098;-64
2023/01/07 09:55:25;;;;;;;2.85;1.73;;;10.40;99.90;;;;;;4949883;29;20149;-64
2023/01/07 09:57:50;;;;;;;5.53;1.70;;;10.40;99.90;;;;;;4918895;29;20074;-64
2023/01/07 10:00:18;;;;;;;3.58;1.80;;;10.50;99.90;;;;;;4949771;29;20410;-64
2023/01/07 10:02:53;;;;;;;3.25;1.92;;;10.50;99.90;;;;;;4933128;28;20069;-65
2023/01/07 10:05:23;;;;;;;3.17;2.28;;;10.50;99.90;;;;;;4950129;29;20477;-68
2023/01/07 10:08:02;;;;;;;2.45;1.80;;;10.50;99.90;;;;;;4945385;29;20094;-67
2023/01/07 10:10:41;;;;;;;3.33;2.20;;;10.60;99.90;;;;;;4950169;29;20093;-66
2023/01/07 10:13:16;;;;;;;2.15;1.67;;;10.60;99.90;;;;;;4933682;29;20489;-66
2023/01/07 10:16:02;;;;;;;3.92;2.05;;;10.70;99.90;;;;;;4950569;29;20516;-65
2023/01/07 10:18:42;;;;;;;3.65;1.60;;;10.80;99.90;;;;;;4951215;28;20090;-66
2023/01/07 10:21:24;;;;;;;3.30;1.63;;;10.70;99.90;;;;;;4944832;29;20051;-67
2023/01/07 10:24:02;;;;;;;2.42;1.67;;;10.80;99.90;;;;;;4947013;28;20039;-66
2023/01/07 10:26:31;;;;;;;;;;;11.10;99.90;;;;;;4938453;29;20047;-67
2023/01/07 10:29:01;;;;;;;3.20;1.88;;;11.40;99.90;;;;;;4952631;28;19918;-67
2023/01/07 10:31:27;;;;;;;3.50;2.10;;;11.30;99.90;;;;;;4937482;29;20388;-67
2023/01/07 10:33:54;;;;;;;3.67;1.80;;;11.30;99.90;;;;;;4936722;29;20047;-67
2023/01/07 10:36:27;;;;;;;2.50;1.70;;;11.30;99.90;;;;;;4937121;29;20130;-67
2023/01/07 10:39:31;;;;;;;3.85;1.45;;;11.40;99.90;;;;;;4953008;28;20051;-68
2023/01/07 10:42:17;;;;;;;2.95;1.25;;;11.70;99.90;;;;;;4954000;29;20047;-66
2023/01/07 10:45:05;;;;;;;1.33;1.00;;;11.50;99.90;;;;;;4965470;28;20043;-67
2023/01/07 10:47:59;;;;;;;3.42;1.40;;;11.30;99.90;;;;;;4948950;29;20043;-67
2023/01/07 10:50:48;;;;;;;2.65;1.50;;;11.40;99.90;;;;;;4953642;29;20054;-67
2023/01/07 10:53:50;;;;;;;2.33;1.42;;;11.40;99.90;;;;;;4964423;28;20057;-66
2023/01/07 10:56:27;;;;;;;3.15;1.42;;;11.60;99.90;;;;;;4946004;28;20039;-66
2023/01/07 10:58:53;;;;;;;2.45;1.10;;;11.70;99.90;;;;;;4952593;29;20051;-67
2023/01/07 11:01:25;;;;;;;1.70;0.90;;;11.90;99.90;;;;;;4951820;29;20059;-67
2023/01/07 11:03:51;;;;;;;1.38;0.95;;;11.90;99.90;;;;;;4953094;29;20055;-66
2023/01/07 11:06:18;;;;;;;2.47;0.95;;;11.90;99.90;;;;;;4936391;29;20285;-67
2023/01/07 11:08:44;;;;;;;1.50;1.10;;;11.80;99.90;;;;;;4951927;29;20062;-65
2023/01/07 11:11:15;;;;;;;1.52;0.90;;;11.80;99.90;;;;;;4952680;28;20053;-66
2023/01/07 11:13:41;;;;;;;2.17;0.98;;;12.80;99.90;;;;;;4937704;29;20401;-67
2023/01/07 11:16:19;;;;;;;1.70;0.93;;;13.40;99.90;;;;;;4933840;29;20517;-66
2023/01/07 11:19:00;;;;;;;1.20;0.70;;;13.40;99.90;;;;;;4936619;29;20097;-67
2023/01/07 11:21:37;;;;;;;2.60;1.42;;;14.90;99.90;;;;;;4935289;29;20209;-70
2023/01/07 11:24:27;;;;;;;2.35;1.25;;;14.20;99.90;;;;;;4968450;28;20085;-67
2023/01/07 11:27:12;;;;;;;4.35;2.65;;;14.30;99.90;;;;;;4966917;28;20059;-66
2023/01/07 11:29:44;;;;;;;1.10;0.80;;;13.70;99.90;;;;;;4951552;29;20059;-66
2023/01/07 11:32:29;;;;;;;0.93;0.80;;;14.30;99.90;;;;;;4952252;28;20393;-66
2023/01/07 11:35:02;;;;;;;0.68;0.68;;;15.20;99.90;;;;;;4967561;28;20039;-67
2023/01/07 11:37:39;;;;;;;1.20;0.80;;;14.50;99.90;;;;;;4950745;28;20493;-66
2023/01/07 11:40:14;;;;;;;1.37;0.80;;;14.70;99.90;;;;;;4936209;29;20066;-65
2023/01/07 11:43:15;;;;;;;1.20;0.60;;;14.60;99.90;;;;;;4951076;29;20413;-66
2023/01/07 11:45:54;;;;;;;0.90;0.80;;;16.00;99.90;;;;;;4946569;29;20464;-66
2023/01/07 11:48:57;;;;;;;2.08;0.85;;;14.80;99.90;;;;;;4932633;29;20137;-65
2023/01/07 11:51:22;;;;;;;14.00;5.65;;;14.80;99.90;;;;;;4950884;28;20346;-65
2023/01/07 11:53:48;;;;;;;3.95;1.40;;;13.00;99.90;;;;;;4934954;29;20457;-67
2023/01/07 11:56:20;;;;;;;2.00;1.40;;;12.50;99.90;;;;;;4951616;28;20049;-66
2023/01/07 11:59:09;;;;;;;1.27;0.80;;;12.20;99.90;;;;;;4951799;28;20385;-67
2023/01/07 12:01:49;;;;;;;1.48;0.70;;;12.10;99.90;;;;;;4964100;28;20457;-67
2023/01/07 12:04:20;;;;;;;1.02;0.60;;;11.80;99.90;;;;;;4935230;29;20113;-66
2023/01/07 12:06:47;;;;;;;1.15;0.65;;;11.60;99.90;;;;;;4950921;28;20051;-68
2023/01/07 12:09:22;;;;;;;1.02;0.47;;;11.50;99.90;;;;;;4966383;28;20046;-65
2023/01/07 12:11:47;;;;;;;0.50;0.50;;;11.50;99.90;;;;;;4967041;28;20051;-67
2023/01/07 12:14:30;;;;;;;0.93;0.60;;;11.40;99.90;;;;;;4935415;29;20043;-67
2023/01/07 12:17:09;;;;;;;2.17;0.60;;;11.50;99.90;;;;;;4951099;29;20081;-67
2023/01/07 12:19:46;;;;;;;2.95;0.70;;;11.50;99.90;;;;;;4950865;29;20055;-68
2023/01/07 12:22:31;;;;;;;1.40;0.73;;;11.40;99.90;;;;;;4952134;29;20540;-68
2023/01/07 12:25:11;;;;;;;1.27;0.70;;;11.30;99.90;;;;;;4968189;28;20046;-65
2023/01/07 12:27:57;;;;;;;0.90;0.70;;;11.40;99.90;;;;;;4951087;28;20058;-67
2023/01/07 12:30:37;;;;;;;1.15;0.55;;;11.40;99.90;;;;;;4950393;29;20462;-66
2023/01/07 12:33:25;;;;;;;1.40;0.60;;;11.30;99.90;;;;;;4965832;28;20050;-65
2023/01/07 12:35:52;;;;;;;3.55;0.70;;;11.30;99.90;;;;;;4976351;28;20046;-65
2023/01/07 12:38:25;;;;;;;1.92;0.70;;;11.30;99.90;;;;;;4966045;28;20054;-66
2023/01/07 12:40:54;;;;;;;0.70;0.50;;;11.40;99.90;;;;;;4929183;29;20051;-66
2023/01/07 12:43:33;;;;;;;1.02;0.73;;;11.30;99.90;;;;;;4950277;29;20055;-67
2023/01/07 12:46:01;;;;;;;0.90;0.45;;;11.40;99.90;;;;;;4950421;29;20078;-67
2023/01/07 12:48:44;;;;;;;1.20;0.40;;;11.30;99.90;;;;;;4936469;29;20054;-68
2023/01/07 12:51:21;;;;;;;0.82;0.70;;;11.30;99.90;;;;;;4952103;29;20164;-67
2023/01/07 12:54:10;;;;;;;3.55;0.70;;;11.30;99.90;;;;;;4935993;29;20042;-66
2023/01/07 12:56:48;;;;;;;0.80;0.50;;;11.20;99.90;;;;;;4949471;28;20156;-67
2023/01/07 12:59:18;;;;;;;1.55;0.60;;;11.20;99.90;;;;;;4920277;29;20054;-67
2023/01/07 13:01:50;;;;;;;0.82;0.30;;;11.20;99.90;;;;;;4931549;29;20145;-66
2023/01/07 13:04:28;;;;;;;0.40;0.38;;;11.20;99.90;;;;;;4947421;28;20051;-67
2023/01/07 13:07:12;;;;;;;1.95;0.75;;;11.20;99.90;;;;;;4949402;29;20071;-66
2023/01/07 13:09:56;;;;;;;0.65;0.50;;;11.20;99.90;;;;;;4960912;28;20058;-68
2023/01/07 13:12:41;;;;;;;2.05;0.60;;;11.20;99.90;;;;;;4933786;29;20047;-69
2023/01/07 13:15:21;;;;;;;1.30;0.65;;;11.10;99.90;;;;;;4931398;29;20392;-67